createdAt,value
2023-05-16T00:01:27.619Z,100854.92
2023-05-16T00:04:34.252Z,100855.69
2023-05-16T00:07:40.003Z,100859.40
2023-05-16T00:10:45.486Z,100864.62
2023-05-16T00:13:53.401Z,100865.38
2023-05-16T00:17:00.849Z,100872.84
2023-05-16T00:20:06.551Z,100869.59
2023-05-16T00:23:12.198Z,100873.07
2023-05-16T00:26:17.283Z,100880.90
2023-05-16T00:29:22.505Z,100884.92
2023-05-16T00:32:30.802Z,100888.06
2023-05-16T00:35:38.132Z,100894.34
2023-05-16T00:38:44.500Z,100893.38
2023-05-16T00:41:50.418Z,100879.31
2023-05-16T00:44:55.691Z,100873.31
2023-05-16T00:48:02.374Z,100891.06
2023-05-16T00:51:09.502Z,100905.19
2023-05-16T00:54:16.516Z,100902.27
2023-05-16T00:57:23.129Z,100897.69
2023-05-16T01:00:28.651Z,100891.04
2023-05-16T01:03:35.271Z,100892.47
2023-05-16T01:06:41.383Z,100879.27
2023-05-16T01:09:46.659Z,100884.13
2023-05-16T01:13:18.085Z,100885.33
2023-05-16T01:16:46.176Z,100884.00
2023-05-16T01:20:21.892Z,100884.69
2023-05-16T01:23:56.214Z,100884.05
2023-05-16T01:27:03.423Z,100881.66
2023-05-16T01:30:12.204Z,100879.45
2023-05-16T01:33:17.857Z,100882.39
2023-05-16T01:36:48.179Z,100880.52
2023-05-16T01:40:14.461Z,100886.02
2023-05-16T01:43:24.675Z,100886.91
2023-05-16T01:46:41.596Z,100885.53
2023-05-16T01:50:01.239Z,100884.52
2023-05-16T01:53:22.700Z,100880.25
2023-05-16T01:56:31.146Z,100880.07
2023-05-16T01:59:41.090Z,100881.30
2023-05-16T02:02:47.764Z,100879.42
2023-05-16T02:05:54.990Z,100876.67
2023-05-16T02:09:01.615Z,100878.55
2023-05-16T02:12:07.691Z,100873.56
2023-05-16T02:15:13.471Z,100879.05
2023-05-16T02:18:20.804Z,100879.59
2023-05-16T02:21:25.266Z,100882.84
2023-05-16T02:24:31.535Z,100887.30
2023-05-16T02:27:37.840Z,100886.47
2023-05-16T02:30:44.349Z,100882.34
2023-05-16T02:33:50.985Z,100881.48
2023-05-16T02:36:58.408Z,100886.61
2023-05-16T02:40:03.558Z,100894.83
2023-05-16T02:43:09.518Z,100895.88
2023-05-16T02:46:15.910Z,100899.78
2023-05-16T02:49:23.648Z,100894.94
2023-05-16T02:52:29.256Z,100896.16
2023-05-16T02:55:36.000Z,100892.88
2023-05-16T02:58:43.243Z,100886.83
2023-05-16T03:01:49.010Z,100889.91
2023-05-16T03:04:55.354Z,100893.30
2023-05-16T03:08:02.531Z,100886.75
2023-05-16T03:11:07.975Z,100893.94
2023-05-16T03:14:13.974Z,100887.20
2023-05-16T03:17:18.913Z,100891.10
2023-05-16T03:20:25.635Z,100897.60
2023-05-16T03:23:31.922Z,100892.05
2023-05-16T03:26:36.834Z,100890.56
2023-05-16T03:29:42.951Z,100893.94
2023-05-16T03:32:48.425Z,100901.08
2023-05-16T03:35:53.729Z,100897.20
2023-05-16T03:39:00.078Z,100903.00
2023-05-16T03:42:06.226Z,100899.80
2023-05-16T03:45:12.329Z,100902.97
2023-05-16T03:48:18.729Z,100903.24
2023-05-16T03:51:24.754Z,100906.21
2023-05-16T03:54:30.158Z,100903.98
2023-05-16T03:57:36.969Z,100900.69
2023-05-16T04:00:43.452Z,100902.93
2023-05-16T04:03:49.537Z,100907.89
2023-05-16T04:06:56.585Z,100905.82
2023-05-16T04:10:02.712Z,100908.07
2023-05-16T04:13:08.673Z,100904.41
2023-05-16T04:16:15.181Z,100906.97
2023-05-16T04:19:14.831Z,100914.02
2023-05-16T04:22:20.374Z,100914.36
2023-05-16T04:25:26.541Z,100910.20
2023-05-16T04:28:34.181Z,100915.00
2023-05-16T04:31:41.134Z,100912.88
2023-05-16T04:34:46.090Z,100909.71
2023-05-16T04:37:51.402Z,100910.89
2023-05-16T04:40:59.546Z,100911.30
2023-05-16T04:44:05.409Z,100910.53
2023-05-16T04:47:10.857Z,100911.17
2023-05-16T04:50:19.059Z,100910.70
2023-05-16T04:53:25.039Z,100913.78
2023-05-16T04:56:29.784Z,100911.39
2023-05-16T04:59:35.058Z,100912.66
2023-05-16T05:02:43.048Z,100909.08
2023-05-16T05:05:48.727Z,100910.16
2023-05-16T05:08:53.876Z,100911.35
2023-05-16T05:11:59.576Z,100905.92
2023-05-16T05:15:04.702Z,100911.39
2023-05-16T05:18:10.061Z,100908.30
2023-05-16T05:21:16.024Z,100911.95
2023-05-16T05:24:22.113Z,100901.42
2023-05-16T05:27:27.542Z,100912.18
2023-05-16T05:30:32.981Z,100909.92
2023-05-16T05:33:42.910Z,100910.55
2023-05-16T05:36:49.087Z,100909.75
2023-05-16T05:39:55.605Z,100907.68
2023-05-16T05:43:01.754Z,100908.17
2023-05-16T05:46:08.158Z,100906.52
2023-05-16T05:49:14.274Z,100912.63
2023-05-16T05:52:20.137Z,100909.22
2023-05-16T05:55:25.623Z,100909.85
2023-05-16T05:58:32.217Z,100914.12
2023-05-16T06:01:37.617Z,100920.30
2023-05-16T06:04:43.449Z,100917.88
2023-05-16T06:07:49.280Z,100922.34
2023-05-16T06:10:55.696Z,100917.89
2023-05-16T06:14:02.262Z,100920.80
2023-05-16T06:17:08.373Z,100920.66
2023-05-16T06:20:14.450Z,100924.83
2023-05-16T06:23:21.489Z,100927.36
2023-05-16T06:26:28.344Z,100921.87
2023-05-16T06:29:34.972Z,100924.09
2023-05-16T06:32:41.184Z,100919.36
2023-05-16T06:35:49.459Z,100925.56
2023-05-16T06:38:55.836Z,100926.48
2023-05-16T06:42:04.212Z,100931.84
2023-05-16T06:45:09.758Z,100927.32
2023-05-16T06:48:16.025Z,100930.09
2023-05-16T06:51:21.832Z,100934.77
2023-05-16T06:54:30.449Z,100937.16
2023-05-16T06:57:37.742Z,100931.48
2023-05-16T07:00:43.708Z,100937.73
2023-05-16T07:03:50.747Z,100940.45
2023-05-16T07:06:58.337Z,100929.33
2023-05-16T07:10:06.320Z,100925.90
2023-05-16T07:13:24.686Z,100928.87
2023-05-16T07:16:38.944Z,100925.83
2023-05-16T07:19:45.735Z,100922.68
2023-05-16T07:22:52.521Z,100928.15
2023-05-16T07:25:58.991Z,100928.73
2023-05-16T07:29:05.520Z,100932.22
2023-05-16T07:32:10.890Z,100928.48
2023-05-16T07:35:16.387Z,100931.89
2023-05-16T07:38:24.292Z,100923.62
2023-05-16T07:41:31.768Z,100928.34
2023-05-16T07:44:38.564Z,100922.19
2023-05-16T07:47:44.685Z,100925.10
2023-05-16T07:50:51.073Z,100923.95
2023-05-16T07:53:56.955Z,100918.39
2023-05-16T07:57:02.313Z,100914.77
2023-05-16T08:00:09.344Z,100917.04
2023-05-16T08:03:16.147Z,100929.41
2023-05-16T08:06:22.512Z,100927.48
2023-05-16T08:09:27.949Z,100927.14
2023-05-16T08:12:35.051Z,100928.42
2023-05-16T08:15:42.943Z,100925.53
2023-05-16T08:18:50.123Z,100929.30
2023-05-16T08:21:55.973Z,100928.61
2023-05-16T08:25:03.875Z,100914.67
2023-05-16T08:28:12.176Z,100917.16
2023-05-16T08:31:18.468Z,100917.09
2023-05-16T08:34:29.840Z,100914.44
2023-05-16T08:37:38.043Z,100918.21
2023-05-16T08:40:44.278Z,100912.22
2023-05-16T08:43:50.818Z,100915.68
2023-05-16T08:46:57.442Z,100915.41
2023-05-16T08:50:04.324Z,100919.89
2023-05-16T08:53:13.890Z,100920.09
2023-05-16T08:56:20.046Z,100914.06
2023-05-16T08:59:26.570Z,100913.12
2023-05-16T09:02:33.684Z,100910.85
2023-05-16T09:05:40.541Z,100907.22
2023-05-16T09:08:48.028Z,100904.41
2023-05-16T09:11:54.146Z,100907.52
2023-05-16T09:15:00.271Z,100896.67
2023-05-16T09:18:06.579Z,100895.03
2023-05-16T09:21:13.647Z,100892.58
2023-05-16T09:24:24.099Z,100888.95
2023-05-16T09:27:30.703Z,100888.95
2023-05-16T09:30:47.461Z,100886.59
2023-05-16T09:33:58.281Z,100886.47
2023-05-16T09:37:09.400Z,100892.55
2023-05-16T09:40:18.266Z,100891.66
2023-05-16T09:43:25.899Z,100897.19
2023-05-16T09:46:32.881Z,100899.61
2023-05-16T09:49:38.880Z,100899.86
2023-05-16T09:52:45.435Z,100898.38
2023-05-16T09:55:52.062Z,100899.77
2023-05-16T09:58:59.079Z,100906.97
2023-05-16T10:02:04.711Z,100904.95
2023-05-16T10:05:10.466Z,100906.24
2023-05-16T10:08:17.638Z,100905.03
2023-05-16T10:11:23.739Z,100907.47
2023-05-16T10:14:31.231Z,100914.68
2023-05-16T10:17:40.440Z,100918.89
2023-05-16T10:20:47.666Z,100913.77
2023-05-16T10:23:56.396Z,100916.52
2023-05-16T10:27:03.107Z,100921.24
2023-05-16T10:30:09.307Z,100919.22
2023-05-16T10:33:17.247Z,100922.53
2023-05-16T10:36:27.001Z,100916.08
2023-05-16T10:39:32.944Z,100917.71
2023-05-16T10:42:38.882Z,100919.30
2023-05-16T10:45:44.558Z,100914.28
2023-05-16T10:48:54.734Z,100921.02
2023-05-16T10:51:59.652Z,100927.20
2023-05-16T10:55:06.650Z,100922.52
2023-05-16T10:58:11.856Z,100920.80
2023-05-16T11:01:41.971Z,100926.40
2023-05-16T11:05:09.145Z,100922.17
2023-05-16T11:08:20.886Z,100912.91
2023-05-16T11:11:58.981Z,100918.51
2023-05-16T11:15:06.381Z,100926.91
2023-05-16T11:18:28.729Z,100927.43
2023-05-16T11:21:36.522Z,100922.94
2023-05-16T11:24:47.913Z,100912.82
2023-05-16T11:28:01.497Z,100912.82
2023-05-16T11:31:11.629Z,100911.48
2023-05-16T11:34:18.108Z,100915.99
2023-05-16T11:37:25.886Z,100912.36
2023-05-16T11:40:32.499Z,100919.30
2023-05-16T11:43:38.106Z,100910.62
2023-05-16T11:46:43.960Z,100910.59
2023-05-16T11:49:51.761Z,100910.51
2023-05-16T11:53:06.091Z,100913.22
2023-05-16T11:56:12.832Z,100912.27
2023-05-16T11:59:35.868Z,100918.33
2023-05-16T12:02:47.191Z,100912.09
2023-05-16T12:05:53.837Z,100910.00
2023-05-16T12:09:08.326Z,100908.73
2023-05-16T12:12:13.134Z,100909.50
2023-05-16T12:15:21.587Z,100910.55
2023-05-16T12:18:28.534Z,100915.16
2023-05-16T12:21:34.059Z,100922.28
2023-05-16T12:24:48.899Z,100911.17
2023-05-16T12:27:55.273Z,100924.48
2023-05-16T12:31:04.418Z,100917.50
2023-05-16T12:34:10.359Z,100925.14
2023-05-16T12:37:15.916Z,100920.44
2023-05-16T12:40:28.070Z,100922.77
2023-05-16T12:43:37.164Z,100925.77
2023-05-16T12:46:43.630Z,100924.87
2023-05-16T12:49:50.018Z,100928.41
2023-05-16T12:53:10.625Z,100927.51
2023-05-16T12:56:16.388Z,100929.29
2023-05-16T12:59:22.958Z,100933.00
2023-05-16T13:02:29.388Z,100941.97
2023-05-16T13:05:35.421Z,100938.39
2023-05-16T13:08:41.722Z,100941.55
2023-05-16T13:11:50.226Z,100934.64
2023-05-16T13:14:56.528Z,100933.36
2023-05-16T13:18:03.763Z,100935.89
2023-05-16T13:21:10.210Z,100946.50
2023-05-16T13:24:17.277Z,100929.11
2023-05-16T13:27:24.460Z,100932.50
2023-05-16T13:30:29.543Z,100926.27
2023-05-16T13:33:35.103Z,100920.67
2023-05-16T13:36:53.056Z,100921.16
2023-05-16T13:39:46.015Z,100924.47
2023-05-16T13:42:55.570Z,100927.73
2023-05-16T13:46:01.436Z,100922.63
2023-05-16T13:49:07.368Z,100920.92
2023-05-16T13:52:13.542Z,100933.88
2023-05-16T13:55:21.620Z,100937.90
2023-05-16T13:58:28.994Z,100927.46
2023-05-16T14:01:35.088Z,100935.72
2023-05-16T14:04:42.338Z,100931.48
2023-05-16T14:07:49.200Z,100933.05
2023-05-16T14:10:54.972Z,100923.73
2023-05-16T14:14:00.208Z,100925.92
2023-05-16T14:17:06.419Z,100936.14
2023-05-16T14:20:14.936Z,100950.20
2023-05-16T14:23:20.215Z,100957.33
2023-05-16T14:26:30.723Z,100956.07
2023-05-16T14:29:37.110Z,100948.95
2023-05-16T14:32:44.457Z,100948.58
2023-05-16T14:35:55.973Z,100944.23
2023-05-16T14:39:05.192Z,100946.63
2023-05-16T14:42:10.941Z,100952.62
2023-05-16T14:45:17.381Z,100949.67
2023-05-16T14:48:23.611Z,100950.89
2023-05-16T14:51:28.973Z,100945.16
2023-05-16T14:54:33.756Z,100950.77
2023-05-16T14:57:40.236Z,100962.82
2023-05-16T15:00:47.212Z,100961.19
2023-05-16T15:03:56.049Z,100957.06
2023-05-16T15:07:01.729Z,100953.16
2023-05-16T15:10:06.941Z,100944.46
2023-05-16T15:13:11.997Z,100938.57
2023-05-16T15:16:18.136Z,100938.51
2023-05-16T15:19:24.687Z,100938.36
2023-05-16T15:22:31.798Z,100929.65
2023-05-16T15:25:40.299Z,100930.36
2023-05-16T15:28:47.791Z,100923.81
2023-05-16T15:31:54.838Z,100921.52
2023-05-16T15:35:01.562Z,100921.05
2023-05-16T15:38:08.023Z,100910.29
2023-05-16T15:41:32.062Z,100906.47
2023-05-16T15:44:24.365Z,100891.89
2023-05-16T15:47:30.852Z,100883.59
2023-05-16T15:50:37.807Z,100888.97
2023-05-16T15:53:44.536Z,100900.22
2023-05-16T15:56:49.893Z,100900.12
2023-05-16T15:59:54.393Z,100907.49
2023-05-16T16:03:01.088Z,100914.64
2023-05-16T16:06:08.628Z,100911.53
2023-05-16T16:09:14.900Z,100921.23
2023-05-16T16:12:21.438Z,100939.33
2023-05-16T16:15:26.551Z,100928.67
2023-05-16T16:18:32.627Z,100925.16
2023-05-16T16:21:38.905Z,100908.20
2023-05-16T16:24:45.496Z,100904.66
2023-05-16T16:27:53.004Z,100907.98
2023-05-16T16:31:00.250Z,100912.45
2023-05-16T16:34:07.179Z,100915.86
2023-05-16T16:37:17.896Z,100920.96
2023-05-16T16:40:25.843Z,100930.14
2023-05-16T16:43:31.760Z,100928.97
2023-05-16T16:46:39.205Z,100914.25
2023-05-16T16:49:47.183Z,100904.77
2023-05-16T16:52:54.860Z,100896.23
2023-05-16T16:56:01.500Z,100902.53
2023-05-16T16:59:08.734Z,100898.37
2023-05-16T17:02:14.634Z,100906.27
2023-05-16T17:05:22.715Z,100908.70
2023-05-16T17:08:29.650Z,100914.58
2023-05-16T17:11:37.589Z,100920.42
2023-05-16T17:14:43.249Z,100914.89
2023-05-16T17:17:47.977Z,100916.80
2023-05-16T17:20:55.060Z,100922.89
2023-05-16T17:24:02.980Z,100929.47
2023-05-16T17:27:11.129Z,100922.02
2023-05-16T17:30:18.932Z,100915.97
2023-05-16T17:33:24.931Z,100927.56
2023-05-16T17:36:31.828Z,100939.52
2023-05-16T17:39:37.043Z,100935.56
2023-05-16T17:42:44.664Z,100940.55
2023-05-16T17:45:51.004Z,100938.86
2023-05-16T17:48:58.630Z,100951.98
2023-05-16T17:52:08.469Z,100952.71
2023-05-16T17:55:14.342Z,100954.09
2023-05-16T17:58:21.451Z,100951.98
2023-05-16T18:01:20.921Z,100947.17
2023-05-16T18:04:14.569Z,100945.47
2023-05-16T18:07:20.279Z,100944.61
2023-05-16T18:10:31.604Z,100946.20
2023-05-16T18:13:36.628Z,100942.05
2023-05-16T18:16:42.224Z,100936.38
2023-05-16T18:19:47.832Z,100942.47
2023-05-16T18:22:55.013Z,100946.08
2023-05-16T18:26:01.998Z,100953.55
2023-05-16T18:29:10.997Z,100956.11
2023-05-16T18:32:20.243Z,100950.23
2023-05-16T18:35:25.738Z,100961.86
2023-05-16T18:38:33.740Z,100957.92
2023-05-16T18:41:39.082Z,100965.36
2023-05-16T18:44:45.636Z,100967.48
2023-05-16T18:47:54.776Z,100967.38
2023-05-16T18:51:00.999Z,100970.02
2023-05-16T18:54:08.673Z,100969.91
2023-05-16T18:57:17.396Z,100979.81
2023-05-16T19:00:26.154Z,100978.85
2023-05-16T19:03:33.394Z,100976.29
2023-05-16T19:06:38.872Z,100974.77
2023-05-16T19:09:44.728Z,100972.77
2023-05-16T19:12:52.750Z,100976.36
2023-05-16T19:16:00.437Z,100981.80
2023-05-16T19:19:06.918Z,100985.30
2023-05-16T19:22:15.003Z,100980.69
2023-05-16T19:25:22.613Z,100981.45
2023-05-16T19:28:29.729Z,100979.11
2023-05-16T19:31:35.963Z,100973.50
2023-05-16T19:34:42.031Z,100969.63
2023-05-16T19:37:48.486Z,100966.09
2023-05-16T19:40:54.602Z,100969.27
2023-05-16T19:44:00.401Z,100968.62
2023-05-16T19:47:07.814Z,100961.80
2023-05-16T19:50:14.188Z,100971.34
2023-05-16T19:53:21.180Z,100966.73
2023-05-16T19:56:28.769Z,100965.56
2023-05-16T19:59:35.220Z,100961.97
2023-05-16T20:02:40.780Z,100970.27
2023-05-16T20:05:47.863Z,100973.76
2023-05-16T20:08:55.036Z,100975.03
2023-05-16T20:11:53.927Z,100971.61
2023-05-16T20:14:59.452Z,100970.84
2023-05-16T20:18:05.495Z,100975.19
2023-05-16T20:21:11.203Z,100979.20
2023-05-16T20:24:18.485Z,100976.13
2023-05-16T20:27:24.820Z,100975.66
2023-05-16T20:30:32.060Z,100971.20
2023-05-16T20:33:39.679Z,100970.34
2023-05-16T20:36:46.110Z,100974.17
2023-05-16T20:39:51.626Z,100973.11
2023-05-16T20:42:57.055Z,100969.27
2023-05-16T20:46:01.651Z,100968.89
2023-05-16T20:49:07.957Z,100967.51
2023-05-16T20:52:13.555Z,100958.45
2023-05-16T20:55:20.696Z,100964.12
2023-05-16T20:58:27.725Z,100964.33
2023-05-16T21:01:33.710Z,100974.33
2023-05-16T21:04:40.276Z,100969.11
2023-05-16T21:07:48.798Z,100962.19
2023-05-16T21:10:55.344Z,100959.42
2023-05-16T21:14:01.298Z,100963.58
2023-05-16T21:17:07.392Z,100961.02
2023-05-16T21:20:15.480Z,100959.52
2023-05-16T21:23:22.247Z,100947.59
2023-05-16T21:26:29.137Z,100953.33
2023-05-16T21:29:35.207Z,100953.33
2023-05-16T21:32:41.817Z,100954.41
2023-05-16T21:35:48.668Z,100953.02
2023-05-16T21:38:55.309Z,100944.78
2023-05-16T21:42:01.377Z,100942.12
2023-05-16T21:45:07.854Z,100940.39
2023-05-16T21:48:16.008Z,100939.41
2023-05-16T21:51:23.659Z,100945.49
2023-05-16T21:54:30.050Z,100941.20
2023-05-16T21:57:30.156Z,100935.16
2023-05-16T22:00:35.901Z,100938.03
2023-05-16T22:03:43.199Z,100931.11
2023-05-16T22:06:49.506Z,100931.11
2023-05-16T22:10:00.651Z,100938.89
2023-05-16T22:13:07.534Z,100940.80
2023-05-16T22:16:13.846Z,100936.33
2023-05-16T22:19:19.712Z,100945.70
2023-05-16T22:22:25.241Z,100943.25
2023-05-16T22:25:31.604Z,100944.63
2023-05-16T22:28:37.761Z,100941.55
2023-05-16T22:31:45.218Z,100939.51
2023-05-16T22:34:51.434Z,100943.66
2023-05-16T22:37:58.160Z,100938.33
2023-05-16T22:41:04.351Z,100941.30
2023-05-16T22:44:11.907Z,100940.23
2023-05-16T22:47:19.114Z,100939.56
2023-05-16T22:50:28.465Z,100935.42
2023-05-16T22:53:34.318Z,100941.50
2023-05-16T22:56:39.651Z,100936.48
2023-05-16T22:59:45.196Z,100933.06
2023-05-16T23:02:52.591Z,100936.59
2023-05-16T23:06:00.499Z,100938.17
2023-05-16T23:09:09.626Z,100933.88
2023-05-16T23:12:16.716Z,100937.71
2023-05-16T23:15:23.912Z,100933.97
2023-05-16T23:18:30.854Z,100929.88
2023-05-16T23:21:36.030Z,100942.53
2023-05-16T23:24:42.910Z,100946.16
2023-05-16T23:27:48.366Z,100940.69
2023-05-16T23:30:54.911Z,100944.00
2023-05-16T23:34:01.447Z,100940.05
2023-05-16T23:37:08.389Z,100937.14
2023-05-16T23:40:15.256Z,100946.91
2023-05-16T23:43:22.441Z,100953.67
2023-05-16T23:46:28.727Z,100957.67
2023-05-16T23:49:34.992Z,100960.95
2023-05-16T23:52:40.830Z,100965.09
2023-05-16T23:55:46.181Z,100962.02
2023-05-16T23:58:52.433Z,100955.42
